Portada
METAR-TAF:

METAR-TAF

Aeroports :

Aeroport de Jiddah Rei Abdulaziz

Jiddah, Aràbia Saudita

latitud: 21-42N, longitud: 039-11E, altitud: 15 m

Observació

L'informe es va fer fa 31 minuts, a les 07:00 UTC
Vent 10 kt del Oest/Nord-Oest
Temperatura 21°C
Humitat 30%
Pressió 1019 hPa
Visibilitat 10 km o més
sense núvols per sota de 1500 mi sense presència de cumulonimbus.

METAR: OEJN 260700Z 30010KT CAVOK 21/03 Q1019 NOSIG

Hora: 10:31 (07:31 UTC)

Pronòstic

L'informe es va fer fa 2 hores i 31 minuts, a les 05:00 UTC
Pronòstic vàlid del 26 a les 06 UTC al 27 a les 12 UTC
Vent 18 kt del Nord/Nord-Oest
Visibilitat: 7000 m
Escasses núvols a una alçada de 4000 ft
Núvols disperses a una alçada de 10000 ft
Evolucionant progressivament
l' 26 a les 18 UTC al 26 a les 20 UTC
Vent 10 kt del Nord/Nord-Est

TAF: OEJN 260500Z 2606/2712 33018KT 7000 FEW040 SCT100 BECMG 2618/2620 02010KT

Observacions i pronòstics meteorològics de més de 4000 aeroports (METAR i TAF).

Les estacions disponibles són els punts grocs i vermells al mapa.

Posi el ratolí al punt desitjat per veure el nom de l'estació.

Feu clic per veure les observacions i els pronòstics meteorològics.

Per canviar el mapa: feu clic els botons verds amb una creu de color negre per apropar; al botó verd amb un guió per allunyar la imatge; o en les fletxes verdes per a mapes adjacents.


METAR-TAF: